sensor_id;sensor_type;location;lat;lon;timestamp;P1;durP1;ratioP1;P2;durP2;ratioP2
62798;SDS011;48842;51.046;13.796;2023-03-01T00:00:53;29.15;;;19.75;;
62798;SDS011;48842;51.046;13.796;2023-03-01T00:03:18;33.87;;;21.30;;
62798;SDS011;48842;51.046;13.796;2023-03-01T00:05:47;31.33;;;20.90;;
62798;SDS011;48842;51.046;13.796;2023-03-01T00:08:12;30.83;;;21.20;;
62798;SDS011;48842;51.046;13.796;2023-03-01T00:10:37;27.73;;;19.97;;
62798;SDS011;48842;51.046;13.796;2023-03-01T00:13:03;27.10;;;19.40;;
62798;SDS011;48842;51.046;13.796;2023-03-01T00:15:30;30.35;;;20.38;;
62798;SDS011;48842;51.046;13.796;2023-03-01T00:17:55;26.37;;;20.10;;
62798;SDS011;48842;51.046;13.796;2023-03-01T00:20:21;27.07;;;20.23;;
62798;SDS011;48842;51.046;13.796;2023-03-01T00:22:46;28.70;;;19.33;;
62798;SDS011;48842;51.046;13.796;2023-03-01T00:25:11;25.43;;;19.30;;
62798;SDS011;48842;51.046;13.796;2023-03-01T00:27:37;30.80;;;20.47;;
62798;SDS011;48842;51.046;13.796;2023-03-01T00:30:02;26.70;;;19.90;;
62798;SDS011;48842;51.046;13.796;2023-03-01T00:32:27;26.30;;;19.00;;
62798;SDS011;48842;51.046;13.796;2023-03-01T00:34:53;29.20;;;19.87;;
62798;SDS011;48842;51.046;13.796;2023-03-01T00:37:21;28.48;;;19.58;;
62798;SDS011;48842;51.046;13.796;2023-03-01T00:39:47;29.97;;;19.33;;
62798;SDS011;48842;51.046;13.796;2023-03-01T00:42:12;26.63;;;19.43;;
62798;SDS011;48842;51.046;13.796;2023-03-01T00:44:37;30.27;;;20.80;;
62798;SDS011;48842;51.046;13.796;2023-03-01T00:47:03;26.70;;;19.80;;
62798;SDS011;48842;51.046;13.796;2023-03-01T00:49:28;29.50;;;20.10;;
62798;SDS011;48842;51.046;13.796;2023-03-01T00:51:53;26.67;;;18.20;;
62798;SDS011;48842;51.046;13.796;2023-03-01T00:54:18;24.80;;;18.80;;
62798;SDS011;48842;51.046;13.796;2023-03-01T00:56:44;28.80;;;19.73;;
62798;SDS011;48842;51.046;13.796;2023-03-01T00:59:09;23.93;;;17.90;;
62798;SDS011;48842;51.046;13.796;2023-03-01T01:01:34;28.07;;;18.43;;
62798;SDS011;48842;51.046;13.796;2023-03-01T01:04:01;25.30;;;19.30;;
62798;SDS011;48842;51.046;13.796;2023-03-01T01:06:32;26.98;;;18.80;;
62798;SDS011;48842;51.046;13.796;2023-03-01T01:09:00;27.05;;;18.45;;
62798;SDS011;48842;51.046;13.796;2023-03-01T01:11:26;29.00;;;19.48;;
62798;SDS011;48842;51.046;13.796;2023-03-01T01:13:53;26.00;;;18.75;;
62798;SDS011;48842;51.046;13.796;2023-03-01T01:16:20;26.13;;;18.30;;
62798;SDS011;48842;51.046;13.796;2023-03-01T01:18:46;27.13;;;19.35;;
62798;SDS011;48842;51.046;13.796;2023-03-01T01:21:13;29.13;;;19.27;;
62798;SDS011;48842;51.046;13.796;2023-03-01T01:23:40;23.88;;;18.27;;
62798;SDS011;48842;51.046;13.796;2023-03-01T01:26:08;26.70;;;19.27;;
62798;SDS011;48842;51.046;13.796;2023-03-01T01:28:35;24.45;;;18.27;;
62798;SDS011;48842;51.046;13.796;2023-03-01T01:31:01;28.53;;;19.30;;
62798;SDS011;48842;51.046;13.796;2023-03-01T01:33:26;24.17;;;18.73;;
62798;SDS011;48842;51.046;13.796;2023-03-01T01:35:52;27.10;;;18.70;;
62798;SDS011;48842;51.046;13.796;2023-03-01T01:38:18;28.03;;;19.50;;
62798;SDS011;48842;51.046;13.796;2023-03-01T01:40:44;32.23;;;19.67;;
62798;SDS011;48842;51.046;13.796;2023-03-01T01:43:27;26.27;;;19.17;;
62798;SDS011;48842;51.046;13.796;2023-03-01T01:45:55;27.95;;;19.45;;
62798;SDS011;48842;51.046;13.796;2023-03-01T01:48:24;29.33;;;19.77;;
62798;SDS011;48842;51.046;13.796;2023-03-01T01:51:05;32.72;;;20.20;;
62798;SDS011;48842;51.046;13.796;2023-03-01T01:53:31;30.05;;;20.02;;
62798;SDS011;48842;51.046;13.796;2023-03-01T01:55:57;26.20;;;18.70;;
62798;SDS011;48842;51.046;13.796;2023-03-01T01:58:26;24.52;;;16.92;;
62798;SDS011;48842;51.046;13.796;2023-03-01T02:00:54;30.63;;;19.90;;
62798;SDS011;48842;51.046;13.796;2023-03-01T02:03:22;24.70;;;18.50;;
62798;SDS011;48842;51.046;13.796;2023-03-01T02:05:51;29.38;;;18.42;;
62798;SDS011;48842;51.046;13.796;2023-03-01T02:08:22;27.23;;;18.85;;
62798;SDS011;48842;51.046;13.796;2023-03-01T02:10:50;23.75;;;18.15;;
62798;SDS011;48842;51.046;13.796;2023-03-01T02:13:18;27.27;;;18.95;;
62798;SDS011;48842;51.046;13.796;2023-03-01T02:15:43;27.70;;;18.73;;
62798;SDS011;48842;51.046;13.796;2023-03-01T02:18:10;30.60;;;19.20;;
62798;SDS011;48842;51.046;13.796;2023-03-01T02:23:30;33.50;;;19.70;;
62798;SDS011;48842;51.046;13.796;2023-03-01T02:26:15;22.20;;;17.65;;
62798;SDS011;48842;51.046;13.796;2023-03-01T02:28:43;25.48;;;18.40;;
62798;SDS011;48842;51.046;13.796;2023-03-01T02:31:10;28.40;;;19.40;;
62798;SDS011;48842;51.046;13.796;2023-03-01T02:33:56;27.50;;;19.02;;
62798;SDS011;48842;51.046;13.796;2023-03-01T02:36:26;24.35;;;18.27;;
62798;SDS011;48842;51.046;13.796;2023-03-01T02:38:57;23.63;;;17.35;;
62798;SDS011;48842;51.046;13.796;2023-03-01T02:41:25;22.73;;;17.05;;
62798;SDS011;48842;51.046;13.796;2023-03-01T02:43:53;27.35;;;17.90;;
62798;SDS011;48842;51.046;13.796;2023-03-01T02:46:19;25.20;;;18.10;;
62798;SDS011;48842;51.046;13.796;2023-03-01T02:48:51;27.90;;;17.98;;
62798;SDS011;48842;51.046;13.796;2023-03-01T02:51:31;27.35;;;18.35;;
62798;SDS011;48842;51.046;13.796;2023-03-01T02:54:10;25.73;;;17.98;;
62798;SDS011;48842;51.046;13.796;2023-03-01T02:56:41;30.15;;;19.52;;
62798;SDS011;48842;51.046;13.796;2023-03-01T02:59:08;28.98;;;17.77;;
62798;SDS011;48842;51.046;13.796;2023-03-01T03:01:35;27.98;;;18.33;;
62798;SDS011;48842;51.046;13.796;2023-03-01T03:04:06;25.25;;;17.65;;
62798;SDS011;48842;51.046;13.796;2023-03-01T03:06:35;27.08;;;17.58;;
62798;SDS011;48842;51.046;13.796;2023-03-01T03:09:00;24.43;;;17.33;;
62798;SDS011;48842;51.046;13.796;2023-03-01T03:11:26;26.53;;;18.43;;
62798;SDS011;48842;51.046;13.796;2023-03-01T03:13:52;24.10;;;17.80;;
62798;SDS011;48842;51.046;13.796;2023-03-01T03:16:18;22.47;;;16.97;;
62798;SDS011;48842;51.046;13.796;2023-03-01T03:18:43;24.30;;;18.10;;
62798;SDS011;48842;51.046;13.796;2023-03-01T03:21:09;23.07;;;16.33;;
62798;SDS011;48842;51.046;13.796;2023-03-01T03:23:36;24.23;;;17.35;;
62798;SDS011;48842;51.046;13.796;2023-03-01T03:26:02;24.33;;;17.53;;
62798;SDS011;48842;51.046;13.796;2023-03-01T03:28:29;31.77;;;17.02;;
62798;SDS011;48842;51.046;13.796;2023-03-01T03:30:57;28.63;;;18.50;;
62798;SDS011;48842;51.046;13.796;2023-03-01T03:33:23;24.27;;;17.47;;
62798;SDS011;48842;51.046;13.796;2023-03-01T03:35:49;27.10;;;17.47;;
62798;SDS011;48842;51.046;13.796;2023-03-01T03:38:16;25.23;;;16.20;;
62798;SDS011;48842;51.046;13.796;2023-03-01T03:41:05;23.23;;;18.00;;
62798;SDS011;48842;51.046;13.796;2023-03-01T03:43:32;25.77;;;18.50;;
62798;SDS011;48842;51.046;13.796;2023-03-01T03:45:59;25.35;;;18.27;;
62798;SDS011;48842;51.046;13.796;2023-03-01T03:48:24;25.93;;;16.37;;
62798;SDS011;48842;51.046;13.796;2023-03-01T03:50:51;28.70;;;17.38;;
62798;SDS011;48842;51.046;13.796;2023-03-01T03:53:18;23.23;;;17.98;;
62798;SDS011;48842;51.046;13.796;2023-03-01T03:55:45;29.70;;;18.90;;
62798;SDS011;48842;51.046;13.796;2023-03-01T03:58:14;26.02;;;17.73;;
62798;SDS011;48842;51.046;13.796;2023-03-01T04:00:41;27.00;;;18.47;;
62798;SDS011;48842;51.046;13.796;2023-03-01T04:03:07;29.38;;;20.00;;
62798;SDS011;48842;51.046;13.796;2023-03-01T04:05:33;28.95;;;18.15;;
62798;SDS011;48842;51.046;13.796;2023-03-01T04:08:02;25.02;;;18.20;;
62798;SDS011;48842;51.046;13.796;2023-03-01T04:10:28;32.43;;;17.60;;
62798;SDS011;48842;51.046;13.796;2023-03-01T04:12:54;29.42;;;18.00;;
62798;SDS011;48842;51.046;13.796;2023-03-01T04:15:21;28.48;;;17.60;;
62798;SDS011;48842;51.046;13.796;2023-03-01T04:17:48;24.33;;;17.52;;
62798;SDS011;48842;51.046;13.796;2023-03-01T04:20:21;24.60;;;17.60;;
62798;SDS011;48842;51.046;13.796;2023-03-01T04:23:01;26.75;;;18.88;;
62798;SDS011;48842;51.046;13.796;2023-03-01T04:28:20;27.02;;;18.63;;
62798;SDS011;48842;51.046;13.796;2023-03-01T04:30:55;26.83;;;17.92;;
62798;SDS011;48842;51.046;13.796;2023-03-01T04:33:21;25.17;;;18.25;;
62798;SDS011;48842;51.046;13.796;2023-03-01T04:35:48;25.17;;;18.75;;
62798;SDS011;48842;51.046;13.796;2023-03-01T04:38:16;24.42;;;17.95;;
62798;SDS011;48842;51.046;13.796;2023-03-01T04:40:42;24.40;;;18.48;;
62798;SDS011;48842;51.046;13.796;2023-03-01T04:43:08;25.43;;;19.40;;
62798;SDS011;48842;51.046;13.796;2023-03-01T04:45:35;28.40;;;18.20;;
62798;SDS011;48842;51.046;13.796;2023-03-01T04:48:00;22.67;;;17.30;;
62798;SDS011;48842;51.046;13.796;2023-03-01T04:50:26;25.80;;;17.67;;
62798;SDS011;48842;51.046;13.796;2023-03-01T04:52:52;25.70;;;18.27;;
62798;SDS011;48842;51.046;13.796;2023-03-01T04:55:17;23.80;;;17.43;;
62798;SDS011;48842;51.046;13.796;2023-03-01T04:57:43;26.93;;;18.27;;
62798;SDS011;48842;51.046;13.796;2023-03-01T05:00:09;22.83;;;17.40;;
62798;SDS011;48842;51.046;13.796;2023-03-01T05:02:53;26.35;;;18.13;;
62798;SDS011;48842;51.046;13.796;2023-03-01T05:05:24;29.90;;;19.73;;
62798;SDS011;48842;51.046;13.796;2023-03-01T05:07:58;25.73;;;17.92;;
62798;SDS011;48842;51.046;13.796;2023-03-01T05:10:26;26.77;;;19.05;;
62798;SDS011;48842;51.046;13.796;2023-03-01T05:12:53;25.13;;;18.67;;
62798;SDS011;48842;51.046;13.796;2023-03-01T05:15:19;27.70;;;16.77;;
62798;SDS011;48842;51.046;13.796;2023-03-01T05:17:46;24.52;;;15.70;;
62798;SDS011;48842;51.046;13.796;2023-03-01T05:20:11;23.57;;;17.17;;
62798;SDS011;48842;51.046;13.796;2023-03-01T05:22:37;28.60;;;16.67;;
62798;SDS011;48842;51.046;13.796;2023-03-01T05:25:03;23.83;;;17.37;;
62798;SDS011;48842;51.046;13.796;2023-03-01T05:27:28;27.60;;;19.13;;
62798;SDS011;48842;51.046;13.796;2023-03-01T05:29:54;26.97;;;18.27;;
62798;SDS011;48842;51.046;13.796;2023-03-01T05:32:21;26.33;;;16.90;;
62798;SDS011;48842;51.046;13.796;2023-03-01T05:34:46;24.20;;;17.50;;
62798;SDS011;48842;51.046;13.796;2023-03-01T05:37:12;23.90;;;18.00;;
62798;SDS011;48842;51.046;13.796;2023-03-01T05:39:39;25.50;;;17.05;;
62798;SDS011;48842;51.046;13.796;2023-03-01T05:42:04;21.95;;;17.60;;
62798;SDS011;48842;51.046;13.796;2023-03-01T05:44:30;25.07;;;18.07;;
62798;SDS011;48842;51.046;13.796;2023-03-01T05:46:55;28.00;;;17.87;;
62798;SDS011;48842;51.046;13.796;2023-03-01T05:49:21;29.37;;;20.40;;
62798;SDS011;48842;51.046;13.796;2023-03-01T05:51:50;25.80;;;17.60;;
62798;SDS011;48842;51.046;13.796;2023-03-01T05:54:17;25.33;;;17.38;;
62798;SDS011;48842;51.046;13.796;2023-03-01T05:56:44;27.73;;;19.10;;
62798;SDS011;48842;51.046;13.796;2023-03-01T05:59:10;27.53;;;19.23;;
62798;SDS011;48842;51.046;13.796;2023-03-01T06:01:36;22.88;;;16.45;;
62798;SDS011;48842;51.046;13.796;2023-03-01T06:04:04;23.08;;;16.45;;
62798;SDS011;48842;51.046;13.796;2023-03-01T06:06:33;27.77;;;17.17;;
62798;SDS011;48842;51.046;13.796;2023-03-01T06:08:59;28.45;;;19.35;;
62798;SDS011;48842;51.046;13.796;2023-03-01T06:11:24;27.90;;;17.87;;
62798;SDS011;48842;51.046;13.796;2023-03-01T06:13:50;24.40;;;17.07;;
62798;SDS011;48842;51.046;13.796;2023-03-01T06:16:15;23.90;;;16.83;;
62798;SDS011;48842;51.046;13.796;2023-03-01T06:18:40;25.20;;;17.13;;
62798;SDS011;48842;51.046;13.796;2023-03-01T06:21:07;27.07;;;17.73;;
62798;SDS011;48842;51.046;13.796;2023-03-01T06:23:32;29.77;;;18.75;;
62798;SDS011;48842;51.046;13.796;2023-03-01T06:25:58;29.45;;;18.77;;
62798;SDS011;48842;51.046;13.796;2023-03-01T06:28:24;25.80;;;18.02;;
62798;SDS011;48842;51.046;13.796;2023-03-01T06:30:50;26.20;;;17.50;;
62798;SDS011;48842;51.046;13.796;2023-03-01T06:33:16;29.20;;;17.63;;
62798;SDS011;48842;51.046;13.796;2023-03-01T06:35:44;24.08;;;16.05;;
62798;SDS011;48842;51.046;13.796;2023-03-01T06:38:09;23.30;;;16.83;;
62798;SDS011;48842;51.046;13.796;2023-03-01T06:40:34;24.00;;;16.70;;
62798;SDS011;48842;51.046;13.796;2023-03-01T06:43:00;24.47;;;17.23;;
62798;SDS011;48842;51.046;13.796;2023-03-01T06:45:25;26.53;;;16.63;;
62798;SDS011;48842;51.046;13.796;2023-03-01T06:47:51;29.43;;;18.53;;
62798;SDS011;48842;51.046;13.796;2023-03-01T06:50:16;27.90;;;17.97;;
62798;SDS011;48842;51.046;13.796;2023-03-01T06:52:42;32.90;;;18.65;;
62798;SDS011;48842;51.046;13.796;2023-03-01T06:55:09;24.73;;;17.85;;
62798;SDS011;48842;51.046;13.796;2023-03-01T06:57:35;28.90;;;18.30;;
62798;SDS011;48842;51.046;13.796;2023-03-01T07:00:00;25.80;;;18.70;;
62798;SDS011;48842;51.046;13.796;2023-03-01T07:02:26;24.23;;;18.53;;
62798;SDS011;48842;51.046;13.796;2023-03-01T07:04:51;26.70;;;18.50;;
62798;SDS011;48842;51.046;13.796;2023-03-01T07:07:17;35.50;;;19.57;;
62798;SDS011;48842;51.046;13.796;2023-03-01T07:09:43;27.23;;;17.37;;
62798;SDS011;48842;51.046;13.796;2023-03-01T07:12:09;25.70;;;16.92;;
62798;SDS011;48842;51.046;13.796;2023-03-01T07:14:34;30.63;;;18.40;;
62798;SDS011;48842;51.046;13.796;2023-03-01T07:16:59;27.83;;;17.43;;
62798;SDS011;48842;51.046;13.796;2023-03-01T07:19:24;23.67;;;16.83;;
62798;SDS011;48842;51.046;13.796;2023-03-01T07:21:50;26.10;;;18.23;;
62798;SDS011;48842;51.046;13.796;2023-03-01T07:24:15;30.37;;;19.00;;
62798;SDS011;48842;51.046;13.796;2023-03-01T07:26:40;25.47;;;17.30;;
62798;SDS011;48842;51.046;13.796;2023-03-01T07:29:06;27.43;;;17.90;;
62798;SDS011;48842;51.046;13.796;2023-03-01T07:31:32;22.00;;;16.80;;
62798;SDS011;48842;51.046;13.796;2023-03-01T07:33:58;27.63;;;17.80;;
62798;SDS011;48842;51.046;13.796;2023-03-01T07:36:23;25.73;;;17.60;;
62798;SDS011;48842;51.046;13.796;2023-03-01T07:38:49;25.97;;;18.13;;
62798;SDS011;48842;51.046;13.796;2023-03-01T07:41:15;22.07;;;16.80;;
62798;SDS011;48842;51.046;13.796;2023-03-01T07:43:40;29.37;;;18.10;;
62798;SDS011;48842;51.046;13.796;2023-03-01T07:46:05;23.27;;;17.67;;
62798;SDS011;48842;51.046;13.796;2023-03-01T07:48:31;23.53;;;17.77;;
62798;SDS011;48842;51.046;13.796;2023-03-01T07:50:58;24.13;;;17.73;;
62798;SDS011;48842;51.046;13.796;2023-03-01T07:53:24;27.48;;;18.50;;
62798;SDS011;48842;51.046;13.796;2023-03-01T07:55:50;26.33;;;19.40;;
62798;SDS011;48842;51.046;13.796;2023-03-01T07:58:15;27.57;;;19.40;;
62798;SDS011;48842;51.046;13.796;2023-03-01T08:00:40;27.40;;;18.67;;
62798;SDS011;48842;51.046;13.796;2023-03-01T08:03:05;30.77;;;18.63;;
62798;SDS011;48842;51.046;13.796;2023-03-01T08:05:31;28.30;;;19.83;;
62798;SDS011;48842;51.046;13.796;2023-03-01T08:07:57;27.42;;;17.85;;
62798;SDS011;48842;51.046;13.796;2023-03-01T08:10:22;28.80;;;19.50;;
62798;SDS011;48842;51.046;13.796;2023-03-01T08:12:48;28.10;;;18.97;;
62798;SDS011;48842;51.046;13.796;2023-03-01T08:15:16;28.30;;;19.27;;
62798;SDS011;48842;51.046;13.796;2023-03-01T08:17:42;26.00;;;18.80;;
62798;SDS011;48842;51.046;13.796;2023-03-01T08:20:07;26.97;;;18.60;;
62798;SDS011;48842;51.046;13.796;2023-03-01T08:22:34;30.80;;;18.25;;
62798;SDS011;48842;51.046;13.796;2023-03-01T08:24:59;27.57;;;19.50;;
62798;SDS011;48842;51.046;13.796;2023-03-01T08:27:24;27.60;;;19.90;;
62798;SDS011;48842;51.046;13.796;2023-03-01T08:29:49;25.03;;;18.80;;
62798;SDS011;48842;51.046;13.796;2023-03-01T08:32:15;27.80;;;19.80;;
62798;SDS011;48842;51.046;13.796;2023-03-01T08:34:40;28.33;;;19.70;;
62798;SDS011;48842;51.046;13.796;2023-03-01T08:37:05;27.57;;;19.73;;
62798;SDS011;48842;51.046;13.796;2023-03-01T08:39:30;29.73;;;19.93;;
62798;SDS011;48842;51.046;13.796;2023-03-01T08:41:56;26.00;;;19.10;;
62798;SDS011;48842;51.046;13.796;2023-03-01T08:44:25;29.13;;;21.13;;
62798;SDS011;48842;51.046;13.796;2023-03-01T08:46:50;30.17;;;21.70;;
62798;SDS011;48842;51.046;13.796;2023-03-01T08:49:18;27.25;;;20.02;;
62798;SDS011;48842;51.046;13.796;2023-03-01T08:51:44;29.45;;;21.77;;
62798;SDS011;48842;51.046;13.796;2023-03-01T08:54:18;29.65;;;21.63;;
62798;SDS011;48842;51.046;13.796;2023-03-01T08:56:45;29.70;;;19.52;;
62798;SDS011;48842;51.046;13.796;2023-03-01T08:59:12;33.75;;;21.20;;
62798;SDS011;48842;51.046;13.796;2023-03-01T09:01:38;29.40;;;19.30;;
62798;SDS011;48842;51.046;13.796;2023-03-01T09:04:05;34.55;;;21.50;;
62798;SDS011;48842;51.046;13.796;2023-03-01T09:06:30;29.43;;;20.97;;
62798;SDS011;48842;51.046;13.796;2023-03-01T09:08:58;29.20;;;20.98;;
62798;SDS011;48842;51.046;13.796;2023-03-01T09:11:23;31.30;;;21.00;;
62798;SDS011;48842;51.046;13.796;2023-03-01T09:13:49;30.00;;;20.70;;
62798;SDS011;48842;51.046;13.796;2023-03-01T09:16:15;33.75;;;22.55;;
62798;SDS011;48842;51.046;13.796;2023-03-01T09:18:42;28.33;;;21.30;;
62798;SDS011;48842;51.046;13.796;2023-03-01T09:23:44;30.95;;;20.70;;
62798;SDS011;48842;51.046;13.796;2023-03-01T09:26:12;30.38;;;21.60;;
62798;SDS011;48842;51.046;13.796;2023-03-01T09:28:41;30.38;;;22.15;;
62798;SDS011;48842;51.046;13.796;2023-03-01T09:31:06;33.13;;;22.23;;
62798;SDS011;48842;51.046;13.796;2023-03-01T09:33:32;29.27;;;21.80;;
62798;SDS011;48842;51.046;13.796;2023-03-01T09:35:58;31.55;;;21.65;;
62798;SDS011;48842;51.046;13.796;2023-03-01T09:38:25;36.53;;;22.15;;
62798;SDS011;48842;51.046;13.796;2023-03-01T09:40:50;31.37;;;21.23;;
62798;SDS011;48842;51.046;13.796;2023-03-01T09:45:55;35.75;;;22.55;;
62798;SDS011;48842;51.046;13.796;2023-03-01T09:48:25;34.53;;;22.77;;
62798;SDS011;48842;51.046;13.796;2023-03-01T09:50:53;35.42;;;21.95;;
62798;SDS011;48842;51.046;13.796;2023-03-01T09:53:20;38.37;;;23.53;;
62798;SDS011;48842;51.046;13.796;2023-03-01T09:56:02;30.33;;;21.00;;
62798;SDS011;48842;51.046;13.796;2023-03-01T09:58:39;31.40;;;22.00;;
62798;SDS011;48842;51.046;13.796;2023-03-01T10:01:29;31.02;;;20.88;;
62798;SDS011;48842;51.046;13.796;2023-03-01T10:04:22;31.67;;;21.38;;
62798;SDS011;48842;51.046;13.796;2023-03-01T10:07:17;30.42;;;21.13;;
62798;SDS011;48842;51.046;13.796;2023-03-01T10:09:51;36.22;;;23.55;;
62798;SDS011;48842;51.046;13.796;2023-03-01T10:12:18;27.43;;;20.30;;
62798;SDS011;48842;51.046;13.796;2023-03-01T10:14:51;35.28;;;22.20;;
62798;SDS011;48842;51.046;13.796;2023-03-01T10:17:43;29.83;;;21.83;;
62798;SDS011;48842;51.046;13.796;2023-03-01T10:22:42;29.20;;;21.85;;
62798;SDS011;48842;51.046;13.796;2023-03-01T10:25:12;30.42;;;21.52;;
62798;SDS011;48842;51.046;13.796;2023-03-01T10:27:46;32.00;;;20.73;;
62798;SDS011;48842;51.046;13.796;2023-03-01T10:30:17;42.27;;;20.03;;
62798;SDS011;48842;51.046;13.796;2023-03-01T10:32:46;29.85;;;20.75;;
62798;SDS011;48842;51.046;13.796;2023-03-01T10:35:26;30.45;;;20.85;;
62798;SDS011;48842;51.046;13.796;2023-03-01T10:38:06;28.23;;;19.90;;
62798;SDS011;48842;51.046;13.796;2023-03-01T10:40:34;30.17;;;19.97;;
62798;SDS011;48842;51.046;13.796;2023-03-01T10:43:02;26.85;;;19.48;;
62798;SDS011;48842;51.046;13.796;2023-03-01T10:48:14;27.23;;;19.47;;
62798;SDS011;48842;51.046;13.796;2023-03-01T10:50:42;29.42;;;20.65;;
62798;SDS011;48842;51.046;13.796;2023-03-01T10:53:28;33.93;;;18.10;;
62798;SDS011;48842;51.046;13.796;2023-03-01T10:56:01;29.53;;;19.40;;
62798;SDS011;48842;51.046;13.796;2023-03-01T10:58:28;23.37;;;18.07;;
62798;SDS011;48842;51.046;13.796;2023-03-01T11:00:55;32.40;;;19.40;;
62798;SDS011;48842;51.046;13.796;2023-03-01T11:03:23;27.20;;;17.90;;
62798;SDS011;48842;51.046;13.796;2023-03-01T11:11:04;25.53;;;18.43;;
62798;SDS011;48842;51.046;13.796;2023-03-01T11:13:31;26.53;;;19.70;;
62798;SDS011;48842;51.046;13.796;2023-03-01T11:16:01;23.90;;;18.03;;
62798;SDS011;48842;51.046;13.796;2023-03-01T11:18:37;23.90;;;16.47;;
62798;SDS011;48842;51.046;13.796;2023-03-01T11:21:02;22.10;;;16.23;;
62798;SDS011;48842;51.046;13.796;2023-03-01T11:23:30;22.50;;;17.00;;
62798;SDS011;48842;51.046;13.796;2023-03-01T11:26:01;23.00;;;17.07;;
62798;SDS011;48842;51.046;13.796;2023-03-01T11:28:30;28.50;;;17.27;;
62798;SDS011;48842;51.046;13.796;2023-03-01T11:30:57;22.80;;;16.50;;
62798;SDS011;48842;51.046;13.796;2023-03-01T11:38:55;18.60;;;14.60;;
62798;SDS011;48842;51.046;13.796;2023-03-01T11:41:28;20.13;;;15.00;;
62798;SDS011;48842;51.046;13.796;2023-03-01T11:44:03;19.67;;;14.30;;
62798;SDS011;48842;51.046;13.796;2023-03-01T11:46:47;23.67;;;14.70;;
62798;SDS011;48842;51.046;13.796;2023-03-01T11:52:28;18.00;;;12.93;;
62798;SDS011;48842;51.046;13.796;2023-03-01T11:55:11;19.97;;;14.73;;
62798;SDS011;48842;51.046;13.796;2023-03-01T11:58:06;18.53;;;12.90;;
62798;SDS011;48842;51.046;13.796;2023-03-01T12:00:57;18.47;;;13.67;;
62798;SDS011;48842;51.046;13.796;2023-03-01T12:03:33;19.13;;;13.10;;
62798;SDS011;48842;51.046;13.796;2023-03-01T12:06:12;20.80;;;13.20;;
62798;SDS011;48842;51.046;13.796;2023-03-01T12:20:17;23.77;;;16.90;;
62798;SDS011;48842;51.046;13.796;2023-03-01T12:23:07;22.40;;;15.67;;
62798;SDS011;48842;51.046;13.796;2023-03-01T12:35:07;26.00;;;18.73;;
62798;SDS011;48842;51.046;13.796;2023-03-01T12:37:56;28.43;;;19.60;;
62798;SDS011;48842;51.046;13.796;2023-03-01T12:40:36;29.57;;;18.70;;
62798;SDS011;48842;51.046;13.796;2023-03-01T12:43:22;24.00;;;17.13;;
62798;SDS011;48842;51.046;13.796;2023-03-01T12:46:20;26.10;;;18.73;;
62798;SDS011;48842;51.046;13.796;2023-03-01T12:51:38;22.73;;;17.50;;
62798;SDS011;48842;51.046;13.796;2023-03-01T12:54:27;27.33;;;19.60;;
62798;SDS011;48842;51.046;13.796;2023-03-01T12:56:55;30.83;;;20.87;;
62798;SDS011;48842;51.046;13.796;2023-03-01T12:59:28;26.40;;;19.30;;
62798;SDS011;48842;51.046;13.796;2023-03-01T13:07:35;27.90;;;19.00;;
62798;SDS011;48842;51.046;13.796;2023-03-01T13:15:47;31.00;;;19.90;;
62798;SDS011;48842;51.046;13.796;2023-03-01T13:34:03;33.33;;;18.60;;
62798;SDS011;48842;51.046;13.796;2023-03-01T13:38:59;27.83;;;18.83;;
62798;SDS011;48842;51.046;13.796;2023-03-01T13:46:47;24.10;;;18.47;;
62798;SDS011;48842;51.046;13.796;2023-03-01T13:49:14;34.97;;;19.90;;
62798;SDS011;48842;51.046;13.796;2023-03-01T13:51:45;26.33;;;19.43;;
62798;SDS011;48842;51.046;13.796;2023-03-01T13:54:12;24.40;;;18.43;;
62798;SDS011;48842;51.046;13.796;2023-03-01T13:56:39;25.43;;;18.83;;
62798;SDS011;48842;51.046;13.796;2023-03-01T13:59:06;30.73;;;21.77;;
62798;SDS011;48842;51.046;13.796;2023-03-01T14:01:39;25.57;;;20.73;;
62798;SDS011;48842;51.046;13.796;2023-03-01T14:04:21;29.17;;;22.20;;
62798;SDS011;48842;51.046;13.796;2023-03-01T14:06:52;32.33;;;22.93;;
62798;SDS011;48842;51.046;13.796;2023-03-01T14:09:32;28.53;;;21.13;;
62798;SDS011;48842;51.046;13.796;2023-03-01T14:14:52;23.87;;;20.67;;
62798;SDS011;48842;51.046;13.796;2023-03-01T14:17:40;25.03;;;21.50;;
62798;SDS011;48842;51.046;13.796;2023-03-01T14:20:17;30.00;;;21.27;;
62798;SDS011;48842;51.046;13.796;2023-03-01T14:22:44;25.33;;;21.90;;
62798;SDS011;48842;51.046;13.796;2023-03-01T14:28:15;23.07;;;20.47;;
62798;SDS011;48842;51.046;13.796;2023-03-01T14:30:53;26.40;;;20.87;;
62798;SDS011;48842;51.046;13.796;2023-03-01T14:35:52;24.07;;;21.67;;
62798;SDS011;48842;51.046;13.796;2023-03-01T14:38:32;25.10;;;22.40;;
62798;SDS011;48842;51.046;13.796;2023-03-01T14:41:00;24.30;;;21.80;;
62798;SDS011;48842;51.046;13.796;2023-03-01T14:43:28;29.17;;;22.10;;
62798;SDS011;48842;51.046;13.796;2023-03-01T14:45:54;26.63;;;22.70;;
62798;SDS011;48842;51.046;13.796;2023-03-01T14:48:20;26.40;;;22.00;;
62798;SDS011;48842;51.046;13.796;2023-03-01T14:50:46;27.30;;;21.77;;
62798;SDS011;48842;51.046;13.796;2023-03-01T14:53:19;26.83;;;22.47;;
62798;SDS011;48842;51.046;13.796;2023-03-01T14:55:48;27.10;;;20.70;;
62798;SDS011;48842;51.046;13.796;2023-03-01T14:58:19;26.50;;;21.27;;
62798;SDS011;48842;51.046;13.796;2023-03-01T15:00:53;28.97;;;21.33;;
62798;SDS011;48842;51.046;13.796;2023-03-01T15:05:58;25.20;;;19.20;;
62798;SDS011;48842;51.046;13.796;2023-03-01T15:08:25;26.50;;;19.27;;
62798;SDS011;48842;51.046;13.796;2023-03-01T15:10:58;22.90;;;18.70;;
62798;SDS011;48842;51.046;13.796;2023-03-01T15:13:29;25.53;;;19.97;;
62798;SDS011;48842;51.046;13.796;2023-03-01T15:16:12;23.97;;;18.90;;
62798;SDS011;48842;51.046;13.796;2023-03-01T15:18:43;22.37;;;18.07;;
62798;SDS011;48842;51.046;13.796;2023-03-01T15:23:53;23.90;;;17.63;;
62798;SDS011;48842;51.046;13.796;2023-03-01T15:26:44;26.93;;;17.27;;
62798;SDS011;48842;51.046;13.796;2023-03-01T15:29:19;22.77;;;16.23;;
62798;SDS011;48842;51.046;13.796;2023-03-01T15:32:00;18.20;;;14.80;;
62798;SDS011;48842;51.046;13.796;2023-03-01T15:34:49;25.70;;;17.80;;
62798;SDS011;48842;51.046;13.796;2023-03-01T15:40:29;20.00;;;15.40;;
62798;SDS011;48842;51.046;13.796;2023-03-01T15:42:58;22.33;;;16.20;;
62798;SDS011;48842;51.046;13.796;2023-03-01T15:45:25;23.13;;;16.30;;
62798;SDS011;48842;51.046;13.796;2023-03-01T15:47:53;28.70;;;17.93;;
62798;SDS011;48842;51.046;13.796;2023-03-01T15:50:29;23.83;;;16.43;;
62798;SDS011;48842;51.046;13.796;2023-03-01T15:52:55;25.27;;;15.00;;
62798;SDS011;48842;51.046;13.796;2023-03-01T15:55:26;22.57;;;15.90;;
62798;SDS011;48842;51.046;13.796;2023-03-01T15:58:02;21.73;;;15.40;;
62798;SDS011;48842;51.046;13.796;2023-03-01T16:00:29;19.90;;;15.67;;
62798;SDS011;48842;51.046;13.796;2023-03-01T16:02:55;25.37;;;17.87;;
62798;SDS011;48842;51.046;13.796;2023-03-01T16:05:22;27.10;;;16.70;;